createdAt,value
2023-03-19T00:00:39.003Z,8.27
2023-03-19T00:03:06.205Z,8.75
2023-03-19T00:05:33.434Z,8.57
2023-03-19T00:08:00.636Z,9.55
2023-03-19T00:10:27.650Z,9.40
2023-03-19T00:12:54.698Z,9.05
2023-03-19T00:15:22.230Z,7.72
2023-03-19T00:17:49.209Z,9.48
2023-03-19T00:20:18.391Z,9.10
2023-03-19T00:22:45.736Z,9.73
2023-03-19T00:25:12.893Z,8.70
2023-03-19T00:27:39.933Z,8.32
2023-03-19T00:30:08.171Z,7.50
2023-03-19T00:32:36.817Z,8.60
2023-03-19T00:35:06.600Z,8.73
2023-03-19T00:37:34.946Z,8.77
2023-03-19T00:40:02.174Z,7.75
2023-03-19T00:42:29.267Z,8.68
2023-03-19T00:44:57.023Z,8.57
2023-03-19T00:47:24.378Z,7.63
2023-03-19T00:49:51.506Z,8.93
2023-03-19T00:52:18.477Z,8.80
2023-03-19T00:54:46.298Z,8.50
2023-03-19T00:57:13.312Z,8.38
2023-03-19T00:59:40.484Z,8.60
2023-03-19T01:02:07.674Z,8.50
2023-03-19T01:04:34.753Z,7.88
2023-03-19T01:07:01.904Z,8.50
2023-03-19T01:09:28.952Z,9.50
2023-03-19T01:11:56.041Z,8.20
2023-03-19T01:14:23.102Z,8.60
2023-03-19T01:16:50.150Z,9.07
2023-03-19T01:19:17.427Z,8.88
2023-03-19T01:21:46.714Z,8.15
2023-03-19T01:24:13.986Z,8.65
2023-03-19T01:26:41.279Z,7.15
2023-03-19T01:29:08.815Z,8.05
2023-03-19T01:31:36.632Z,8.45
2023-03-19T01:34:04.053Z,8.73
2023-03-19T01:36:31.608Z,8.30
2023-03-19T01:38:58.650Z,8.85
2023-03-19T01:41:25.884Z,9.52
2023-03-19T01:43:53.115Z,9.52
2023-03-19T01:46:34.689Z,8.20
2023-03-19T01:49:06.417Z,7.68
2023-03-19T01:51:39.719Z,9.05
2023-03-19T01:54:12.371Z,8.85
2023-03-19T01:56:41.455Z,8.07
2023-03-19T01:59:22.610Z,8.50
2023-03-19T02:02:13.174Z,8.35
2023-03-19T02:04:43.705Z,9.82
2023-03-19T02:07:11.668Z,8.40
2023-03-19T02:09:40.645Z,8.98
2023-03-19T02:12:09.349Z,8.52
2023-03-19T02:14:36.970Z,8.07
2023-03-19T02:17:05.577Z,7.65
2023-03-19T02:19:53.530Z,7.85
2023-03-19T02:22:24.093Z,8.52
2023-03-19T02:25:11.178Z,8.07
2023-03-19T02:27:38.350Z,8.70
2023-03-19T02:30:22.311Z,8.07
2023-03-19T02:32:49.368Z,8.45
2023-03-19T02:35:16.796Z,8.18
2023-03-19T02:37:43.835Z,7.43
2023-03-19T02:40:25.023Z,8.90
2023-03-19T02:42:52.044Z,8.73
2023-03-19T02:45:19.157Z,7.70
2023-03-19T02:47:46.148Z,8.68
2023-03-19T02:50:13.550Z,9.75
2023-03-19T02:52:40.716Z,8.40
2023-03-19T02:55:08.178Z,9.15
2023-03-19T02:57:35.584Z,8.20
2023-03-19T03:00:04.743Z,8.50
2023-03-19T03:02:31.893Z,7.68
2023-03-19T03:04:58.919Z,8.38
2023-03-19T03:07:27.224Z,8.27
2023-03-19T03:09:54.242Z,8.02
2023-03-19T03:12:21.264Z,9.50
2023-03-19T03:14:48.344Z,8.05
2023-03-19T03:17:15.979Z,8.52
2023-03-19T03:19:43.185Z,8.55
2023-03-19T03:22:10.461Z,7.95
2023-03-19T03:24:39.396Z,8.20
2023-03-19T03:27:06.837Z,8.63
2023-03-19T03:29:33.876Z,8.45
2023-03-19T03:32:00.924Z,9.15
2023-03-19T03:34:27.873Z,8.88
2023-03-19T03:36:54.878Z,9.68
2023-03-19T03:39:21.896Z,8.65
2023-03-19T03:41:48.912Z,8.23
2023-03-19T03:44:15.957Z,8.35
2023-03-19T03:46:43.616Z,8.23
2023-03-19T03:49:10.962Z,7.38
2023-03-19T03:51:37.967Z,8.55
2023-03-19T03:54:04.987Z,7.47
2023-03-19T03:56:33.429Z,8.48
2023-03-19T03:59:01.403Z,9.18
2023-03-19T04:01:28.440Z,9.32
2023-03-19T04:03:55.662Z,9.70
2023-03-19T04:06:24.937Z,8.35
2023-03-19T04:08:52.007Z,8.20
2023-03-19T04:11:19.427Z,9.13
2023-03-19T04:13:47.004Z,9.90
2023-03-19T04:16:15.731Z,9.23
2023-03-19T04:18:43.039Z,9.90
2023-03-19T04:21:10.407Z,8.65
2023-03-19T04:23:37.458Z,8.57
2023-03-19T04:26:07.665Z,8.23
2023-03-19T04:28:34.976Z,8.68
2023-03-19T04:31:04.880Z,9.55
2023-03-19T04:33:32.799Z,8.27
2023-03-19T04:36:00.639Z,8.43
2023-03-19T04:38:28.710Z,7.30
2023-03-19T04:40:56.400Z,8.52
2023-03-19T04:43:24.558Z,8.60
2023-03-19T04:45:52.035Z,8.05
2023-03-19T04:48:19.253Z,8.00
2023-03-19T04:50:47.357Z,7.50
2023-03-19T04:53:14.604Z,7.53
2023-03-19T04:55:41.857Z,7.90
2023-03-19T04:58:09.392Z,8.52
2023-03-19T05:00:36.950Z,8.00
2023-03-19T05:03:04.183Z,8.25
2023-03-19T05:05:31.501Z,8.32
2023-03-19T05:07:58.706Z,8.75
2023-03-19T05:10:25.780Z,8.60
2023-03-19T05:12:52.824Z,8.50
2023-03-19T05:15:19.938Z,8.90
2023-03-19T05:17:46.988Z,7.97
2023-03-19T05:20:14.487Z,9.13
2023-03-19T05:22:41.716Z,8.30
2023-03-19T05:25:09.879Z,9.00
2023-03-19T05:27:37.073Z,9.30
2023-03-19T05:30:05.956Z,8.52
2023-03-19T05:32:33.413Z,9.10
2023-03-19T05:35:00.402Z,8.90
2023-03-19T05:37:27.448Z,8.50
2023-03-19T05:39:54.432Z,8.55
2023-03-19T05:42:21.830Z,10.15
2023-03-19T05:44:49.063Z,9.15
2023-03-19T05:47:16.377Z,8.52
2023-03-19T05:49:43.497Z,8.48
2023-03-19T05:52:10.627Z,8.60
2023-03-19T05:54:37.759Z,8.57
2023-03-19T05:57:05.390Z,8.88
2023-03-19T05:59:32.473Z,8.70
2023-03-19T06:01:59.923Z,8.70
2023-03-19T06:04:27.477Z,8.40
2023-03-19T06:06:54.537Z,9.35
2023-03-19T06:09:21.533Z,8.52
2023-03-19T06:11:48.608Z,8.82
2023-03-19T06:14:15.804Z,9.30
2023-03-19T06:16:42.835Z,8.70
2023-03-19T06:19:09.911Z,9.23
2023-03-19T06:21:36.892Z,9.77
2023-03-19T06:24:03.983Z,8.95
2023-03-19T06:26:31.297Z,8.55
2023-03-19T06:28:58.396Z,9.00
2023-03-19T06:31:25.967Z,8.38
2023-03-19T06:33:53.408Z,9.82
2023-03-19T06:36:21.057Z,9.55
2023-03-19T06:38:48.046Z,9.05
2023-03-19T06:41:15.102Z,9.77
2023-03-19T06:43:42.469Z,9.55
2023-03-19T06:46:11.631Z,10.35
2023-03-19T06:48:39.084Z,9.15
2023-03-19T06:51:06.539Z,10.18
2023-03-19T06:53:34.119Z,9.75
2023-03-19T06:56:01.257Z,10.45
2023-03-19T06:58:28.558Z,9.73
2023-03-19T07:00:56.003Z,11.40
2023-03-19T07:03:23.394Z,12.18
2023-03-19T07:05:54.059Z,10.55
2023-03-19T07:08:21.067Z,9.57
2023-03-19T07:10:48.195Z,9.88
2023-03-19T07:13:15.793Z,9.38
2023-03-19T07:15:42.842Z,9.88
2023-03-19T07:18:09.905Z,10.85
2023-03-19T07:20:37.176Z,10.35
2023-03-19T07:23:04.242Z,9.88
2023-03-19T07:25:31.949Z,9.73
2023-03-19T07:27:58.973Z,10.00
2023-03-19T07:30:26.086Z,10.30
2023-03-19T07:32:53.200Z,9.80
2023-03-19T07:35:20.533Z,10.00
2023-03-19T07:37:47.644Z,9.73
2023-03-19T07:40:14.939Z,9.82
2023-03-19T07:42:43.983Z,9.90
2023-03-19T07:45:12.553Z,10.60
2023-03-19T07:47:40.378Z,10.35
2023-03-19T07:50:08.296Z,10.13
2023-03-19T07:52:35.481Z,11.00
2023-03-19T07:55:02.572Z,11.68
2023-03-19T07:57:29.654Z,10.30
2023-03-19T07:59:56.809Z,10.60
2023-03-19T08:02:23.893Z,11.15
2023-03-19T08:04:51.437Z,10.85
2023-03-19T08:07:18.534Z,11.38
2023-03-19T08:09:45.695Z,10.90
2023-03-19T08:12:13.526Z,11.80
2023-03-19T08:14:40.710Z,11.45
2023-03-19T08:17:08.478Z,11.90
2023-03-19T08:19:35.707Z,10.60
2023-03-19T08:22:02.839Z,9.98
2023-03-19T08:24:29.972Z,11.52
2023-03-19T08:26:57.030Z,10.80
2023-03-19T08:29:26.711Z,11.07
2023-03-19T08:31:54.703Z,11.02
2023-03-19T08:34:22.797Z,10.90
2023-03-19T08:36:49.862Z,11.70
2023-03-19T08:39:17.197Z,11.25
2023-03-19T08:41:44.290Z,10.80
2023-03-19T08:44:11.327Z,10.73
2023-03-19T08:46:38.505Z,10.82
2023-03-19T08:49:05.807Z,11.23
2023-03-19T08:51:32.820Z,11.30
2023-03-19T08:54:00.199Z,11.63
2023-03-19T08:56:27.326Z,11.38
2023-03-19T08:58:57.021Z,11.00
2023-03-19T09:01:24.564Z,11.30
2023-03-19T09:03:51.638Z,10.57
2023-03-19T09:06:18.728Z,11.20
2023-03-19T09:08:46.383Z,11.63
2023-03-19T09:11:14.736Z,10.80
2023-03-19T09:13:41.981Z,13.25
2023-03-19T09:16:09.304Z,10.50
2023-03-19T09:18:36.477Z,12.13
2023-03-19T09:21:03.795Z,11.30
2023-03-19T09:23:30.962Z,10.70
2023-03-19T09:25:58.066Z,10.93
2023-03-19T09:28:25.165Z,12.10
2023-03-19T09:30:52.432Z,11.00
2023-03-19T09:33:20.974Z,11.57
2023-03-19T09:35:52.894Z,11.65
2023-03-19T09:38:21.338Z,11.55
2023-03-19T09:41:01.702Z,11.30
2023-03-19T09:43:46.765Z,11.63
2023-03-19T09:46:26.758Z,12.38
2023-03-19T09:49:36.664Z,11.60
2023-03-19T09:52:35.535Z,11.80
2023-03-19T09:55:20.095Z,11.60
2023-03-19T09:57:48.388Z,12.00
2023-03-19T10:00:33.023Z,11.60
2023-03-19T10:03:08.821Z,12.05
2023-03-19T10:06:00.711Z,11.70
2023-03-19T10:08:45.776Z,12.55
2023-03-19T10:11:32.723Z,13.07
2023-03-19T10:14:23.295Z,12.80
2023-03-19T10:16:53.075Z,11.85
2023-03-19T10:19:26.638Z,11.88
2023-03-19T10:21:58.603Z,11.57
2023-03-19T10:24:32.144Z,11.75
2023-03-19T10:27:10.004Z,12.70
2023-03-19T10:29:37.569Z,14.50
2023-03-19T10:32:26.238Z,12.75
2023-03-19T10:34:56.144Z,12.82
2023-03-19T10:37:26.877Z,13.30
2023-03-19T10:39:57.690Z,12.00
2023-03-19T10:42:41.014Z,11.90
2023-03-19T10:45:29.002Z,12.48
2023-03-19T10:47:57.129Z,12.05
2023-03-19T10:50:37.690Z,12.00
2023-03-19T10:53:13.563Z,11.55
2023-03-19T10:56:17.919Z,13.07
2023-03-19T10:58:57.072Z,11.77
2023-03-19T11:01:36.785Z,12.55
2023-03-19T11:04:14.353Z,12.57
2023-03-19T11:06:41.546Z,12.30
2023-03-19T11:09:08.742Z,12.20
2023-03-19T11:12:05.768Z,11.07
2023-03-19T11:14:43.949Z,11.93
2023-03-19T11:17:38.366Z,12.50
2023-03-19T11:20:27.579Z,11.63
2023-03-19T11:22:56.597Z,12.77
2023-03-19T11:25:42.306Z,12.90
2023-03-19T11:28:21.253Z,13.40
2023-03-19T11:31:20.157Z,12.18
2023-03-19T11:34:02.092Z,12.88
2023-03-19T11:36:31.809Z,13.35
2023-03-19T11:39:22.165Z,12.43
2023-03-19T11:42:02.122Z,11.70
2023-03-19T11:44:48.267Z,12.27
2023-03-19T11:47:50.859Z,12.45
2023-03-19T11:50:24.861Z,12.70
2023-03-19T11:53:21.529Z,11.85
2023-03-19T11:56:01.342Z,12.15
2023-03-19T11:58:34.252Z,12.23
2023-03-19T12:01:13.284Z,12.80
2023-03-19T12:04:18.559Z,13.70
2023-03-19T12:07:04.337Z,12.80
2023-03-19T12:09:58.219Z,11.80
2023-03-19T12:12:34.918Z,11.20
2023-03-19T12:15:08.810Z,11.53
2023-03-19T12:17:44.006Z,11.40
2023-03-19T12:20:38.440Z,11.50
2023-03-19T12:23:11.377Z,11.00
2023-03-19T12:26:06.234Z,11.67
2023-03-19T12:28:41.507Z,12.03
2023-03-19T12:31:19.834Z,10.83
2023-03-19T12:34:22.070Z,11.33
2023-03-19T12:36:52.139Z,11.50
2023-03-19T12:39:26.270Z,11.53
2023-03-19T12:41:56.447Z,11.20
2023-03-19T12:44:32.910Z,11.27
2023-03-19T12:47:07.147Z,10.77
2023-03-19T12:49:47.918Z,11.20
2023-03-19T12:52:36.362Z,11.10
2023-03-19T12:55:17.811Z,11.13
2023-03-19T12:58:03.214Z,11.07
2023-03-19T13:00:51.797Z,10.83
2023-03-19T13:03:38.961Z,10.50
2023-03-19T13:06:06.297Z,11.43
2023-03-19T13:08:39.493Z,10.67
2023-03-19T13:11:25.358Z,11.13
2023-03-19T13:14:02.384Z,10.60
2023-03-19T13:16:46.008Z,11.63
2023-03-19T13:19:40.541Z,10.70
2023-03-19T13:22:13.630Z,10.77
2023-03-19T13:24:44.744Z,11.20
2023-03-19T13:27:33.635Z,11.90
2023-03-19T13:30:17.942Z,11.07
2023-03-19T13:32:54.622Z,11.33
2023-03-19T13:35:52.138Z,11.40
2023-03-19T13:38:42.134Z,10.27
2023-03-19T13:41:37.840Z,11.47
2023-03-19T13:44:50.227Z,10.80
2023-03-19T13:47:26.718Z,10.50
2023-03-19T13:50:16.519Z,10.37
2023-03-19T13:52:50.298Z,10.30
2023-03-19T13:55:30.166Z,10.97
2023-03-19T13:58:38.403Z,10.80
2023-03-19T14:01:28.584Z,10.68
2023-03-19T14:04:02.029Z,10.83
2023-03-19T14:06:47.903Z,9.97
2023-03-19T14:09:39.404Z,10.80
2023-03-19T14:12:18.801Z,11.48
2023-03-19T14:14:58.487Z,14.07
2023-03-19T14:17:33.543Z,11.43
2023-03-19T14:20:21.186Z,11.30
2023-03-19T14:23:11.094Z,10.30
2023-03-19T14:26:07.223Z,9.10
2023-03-19T14:29:03.737Z,10.60
2023-03-19T14:31:53.945Z,10.13
2023-03-19T14:34:40.849Z,9.43
2023-03-19T14:37:20.286Z,10.20
2023-03-19T14:39:54.872Z,10.97
2023-03-19T14:43:04.074Z,11.43
2023-03-19T14:45:48.200Z,9.63
2023-03-19T14:48:33.701Z,9.97
2023-03-19T14:51:19.954Z,9.50
2023-03-19T14:54:07.299Z,9.65
2023-03-19T14:56:36.475Z,9.43
2023-03-19T14:59:07.898Z,10.57
2023-03-19T15:01:41.663Z,9.60
2023-03-19T15:04:14.563Z,9.93
2023-03-19T15:06:48.486Z,9.73
2023-03-19T15:09:31.359Z,9.50
2023-03-19T15:12:33.872Z,10.23
2023-03-19T15:15:21.420Z,10.37
2023-03-19T15:18:03.478Z,10.63
2023-03-19T15:20:45.347Z,10.00
2023-03-19T15:23:26.911Z,10.43
2023-03-19T15:25:58.172Z,9.87
2023-03-19T15:28:37.572Z,12.37
2023-03-19T15:31:26.273Z,10.30
2023-03-19T15:33:54.962Z,9.00
2023-03-19T15:36:32.402Z,10.23
2023-03-19T15:39:07.594Z,9.60
2023-03-19T15:41:40.858Z,10.73
2023-03-19T15:44:15.886Z,10.32
2023-03-19T15:46:45.213Z,9.30
2023-03-19T15:49:28.486Z,10.63
2023-03-19T15:52:01.613Z,9.93
2023-03-19T15:54:31.109Z,10.32
2023-03-19T15:57:02.188Z,10.07
2023-03-19T15:59:31.866Z,9.68
2023-03-19T16:02:05.019Z,10.55
2023-03-19T16:04:45.668Z,9.65
2023-03-19T16:07:33.148Z,10.70
2023-03-19T16:10:00.905Z,10.25
2023-03-19T16:12:42.201Z,10.20
2023-03-19T16:15:33.682Z,10.13
2023-03-19T16:18:16.961Z,10.38
2023-03-19T16:20:55.656Z,10.73
2023-03-19T16:23:28.645Z,11.25
2023-03-19T16:25:58.317Z,9.85
2023-03-19T16:28:26.461Z,9.25
2023-03-19T16:30:54.045Z,10.18
2023-03-19T16:33:22.196Z,11.00
2023-03-19T16:35:53.270Z,10.57
2023-03-19T16:38:30.592Z,10.13
2023-03-19T16:41:36.623Z,11.40
2023-03-19T16:44:19.616Z,9.95
2023-03-19T16:46:47.639Z,10.25
2023-03-19T16:49:16.382Z,10.07
2023-03-19T16:51:44.382Z,10.68
2023-03-19T16:54:15.147Z,11.90
2023-03-19T16:56:43.561Z,12.25
2023-03-19T16:59:22.185Z,12.80
2023-03-19T17:01:50.060Z,11.30
2023-03-19T17:04:18.048Z,10.93
2023-03-19T17:06:46.390Z,11.40
2023-03-19T17:09:14.615Z,11.43
2023-03-19T17:11:44.079Z,11.50
2023-03-19T17:14:20.785Z,11.18
2023-03-19T17:16:51.144Z,12.60
2023-03-19T17:19:25.102Z,12.32
2023-03-19T17:21:58.594Z,13.52
2023-03-19T17:24:30.634Z,12.55
2023-03-19T17:27:00.943Z,13.70
2023-03-19T17:29:29.965Z,14.43
2023-03-19T17:32:02.180Z,14.75
2023-03-19T17:34:32.937Z,15.13
2023-03-19T17:37:04.027Z,14.55
2023-03-19T17:39:32.367Z,14.55
2023-03-19T17:42:01.190Z,13.65
2023-03-19T17:44:30.054Z,13.00
2023-03-19T17:46:58.686Z,13.18
2023-03-19T17:49:29.932Z,13.95
2023-03-19T17:51:59.604Z,14.70
2023-03-19T17:54:29.196Z,15.98
2023-03-19T17:56:58.061Z,14.95
2023-03-19T17:59:26.665Z,18.95
2023-03-19T18:01:55.495Z,18.88
2023-03-19T18:04:24.209Z,17.60
2023-03-19T18:06:55.477Z,16.00
2023-03-19T18:09:26.847Z,17.50
2023-03-19T18:11:59.184Z,17.50
2023-03-19T18:14:33.548Z,17.00
2023-03-19T18:17:06.674Z,17.23
2023-03-19T18:19:39.489Z,19.20
2023-03-19T18:22:19.392Z,21.45
2023-03-19T18:24:47.642Z,19.85
2023-03-19T18:27:16.119Z,19.00
2023-03-19T18:29:44.214Z,19.75
2023-03-19T18:32:27.978Z,19.02
2023-03-19T18:34:55.975Z,16.30
2023-03-19T18:37:23.948Z,15.55
2023-03-19T18:39:51.954Z,13.65
2023-03-19T18:42:21.542Z,14.35
2023-03-19T18:44:49.852Z,14.40
2023-03-19T18:47:18.632Z,14.32
2023-03-19T18:49:47.201Z,13.73
2023-03-19T18:52:19.125Z,15.05
2023-03-19T18:54:48.322Z,15.68
2023-03-19T18:57:17.509Z,17.30
2023-03-19T18:59:48.842Z,16.30
2023-03-19T19:02:34.474Z,14.95
2023-03-19T19:05:06.158Z,15.95
2023-03-19T19:07:35.885Z,15.40
2023-03-19T19:10:05.937Z,18.10
2023-03-19T19:12:35.204Z,14.75
2023-03-19T19:15:05.942Z,15.13
2023-03-19T19:17:35.425Z,17.58
2023-03-19T19:20:03.432Z,16.70
2023-03-19T19:22:31.667Z,16.85
2023-03-19T19:24:59.770Z,14.00
2023-03-19T19:27:31.420Z,15.35
2023-03-19T19:30:01.493Z,14.60
2023-03-19T19:32:31.905Z,14.27
2023-03-19T19:34:59.969Z,14.43
2023-03-19T19:37:28.168Z,14.15
2023-03-19T19:39:56.382Z,18.52
2023-03-19T19:42:24.846Z,17.17
2023-03-19T19:45:01.166Z,17.23
2023-03-19T19:47:29.536Z,16.25
2023-03-19T19:49:58.611Z,15.55
2023-03-19T19:52:26.728Z,14.00
2023-03-19T19:54:54.760Z,14.15
2023-03-19T19:57:25.352Z,14.23
2023-03-19T19:59:55.467Z,12.73
2023-03-19T20:02:30.036Z,13.75
2023-03-19T20:04:59.289Z,14.57
2023-03-19T20:07:28.006Z,14.13
2023-03-19T20:09:56.217Z,13.27
2023-03-19T20:12:34.040Z,13.15
2023-03-19T20:15:02.636Z,13.45
2023-03-19T20:17:31.043Z,13.13
2023-03-19T20:19:59.022Z,13.65
2023-03-19T20:22:27.362Z,15.10
2023-03-19T20:24:55.883Z,13.88
2023-03-19T20:27:35.139Z,14.77
2023-03-19T20:30:05.443Z,14.35
2023-03-19T20:32:38.538Z,14.07
2023-03-19T20:35:15.954Z,14.40
2023-03-19T20:37:44.118Z,16.23
2023-03-19T20:40:14.916Z,15.30
2023-03-19T20:42:52.097Z,15.95
2023-03-19T20:45:26.151Z,15.57
2023-03-19T20:47:54.916Z,16.13
2023-03-19T20:50:29.412Z,15.65
2023-03-19T20:53:01.745Z,15.27
2023-03-19T20:55:32.484Z,16.10
2023-03-19T20:58:03.466Z,17.27
2023-03-19T21:00:34.305Z,16.27
2023-03-19T21:03:03.527Z,16.40
2023-03-19T21:05:39.199Z,17.13
2023-03-19T21:08:28.234Z,16.95
2023-03-19T21:10:56.692Z,15.90
2023-03-19T21:13:28.012Z,17.17
2023-03-19T21:15:56.014Z,16.10
2023-03-19T21:18:24.169Z,16.95
2023-03-19T21:20:55.284Z,17.77
2023-03-19T21:23:35.337Z,16.38
2023-03-19T21:26:24.727Z,15.40
2023-03-19T21:29:03.446Z,13.90
2023-03-19T21:31:31.520Z,15.90
2023-03-19T21:33:58.889Z,15.07
2023-03-19T21:36:26.258Z,15.98
2023-03-19T21:38:53.558Z,17.00
2023-03-19T21:41:25.007Z,15.68
2023-03-19T21:43:57.588Z,16.20
2023-03-19T21:46:27.369Z,15.55
2023-03-19T21:48:55.955Z,15.60
2023-03-19T21:51:25.283Z,16.05
2023-03-19T21:53:52.758Z,15.55
2023-03-19T21:56:23.310Z,15.43
2023-03-19T21:58:52.289Z,15.70
2023-03-19T22:01:23.883Z,14.93
2023-03-19T22:03:56.014Z,14.40
2023-03-19T22:06:24.653Z,14.05
2023-03-19T22:08:54.252Z,14.02
2023-03-19T22:11:30.632Z,14.40
2023-03-19T22:14:05.666Z,15.52
2023-03-19T22:16:33.269Z,14.95
2023-03-19T22:19:00.334Z,14.95
2023-03-19T22:21:31.191Z,14.75
2023-03-19T22:23:58.267Z,14.40
2023-03-19T22:26:37.519Z,13.60
2023-03-19T22:29:28.222Z,15.13
2023-03-19T22:31:56.461Z,15.57
2023-03-19T22:34:26.261Z,15.00
2023-03-19T22:36:53.280Z,14.98
2023-03-19T22:39:20.549Z,15.80
2023-03-19T22:41:49.532Z,16.73
2023-03-19T22:44:31.427Z,15.75
2023-03-19T22:47:00.978Z,16.55
2023-03-19T22:49:29.944Z,15.73
2023-03-19T22:51:57.926Z,16.90
2023-03-19T22:54:25.734Z,16.65
2023-03-19T22:56:52.811Z,16.25
2023-03-19T22:59:20.625Z,17.40
2023-03-19T23:01:48.703Z,16.13
2023-03-19T23:04:23.216Z,16.23
2023-03-19T23:06:51.767Z,16.33
2023-03-19T23:09:39.076Z,16.10
2023-03-19T23:14:34.990Z,16.05
2023-03-19T23:17:07.549Z,16.52
2023-03-19T23:19:37.459Z,15.52
2023-03-19T23:22:06.537Z,17.02
2023-03-19T23:24:33.986Z,16.30
2023-03-19T23:27:02.634Z,16.10
2023-03-19T23:29:31.798Z,17.85
2023-03-19T23:31:58.832Z,17.60
2023-03-19T23:34:28.732Z,18.45
2023-03-19T23:36:56.953Z,18.20
2023-03-19T23:39:24.664Z,17.35
2023-03-19T23:41:55.920Z,17.52
2023-03-19T23:44:23.616Z,17.85
2023-03-19T23:46:52.575Z,16.40
2023-03-19T23:49:29.818Z,18.45
2023-03-19T23:51:57.587Z,19.55
2023-03-19T23:54:38.007Z,18.38
2023-03-19T23:57:13.084Z,18.02
2023-03-19T23:59:43.244Z,16.92
